Time;durP1;ratioP1;P1;durP2;ratioP2;P2;SDS_P1;SDS_P2;PMS_P1;PMS_P2;Temp;Humidity;BMP_temperature;BMP_pressure;BME280_temperature;BME280_humidity;BME280_pressure;Samples;Min_cycle;Max_cycle;Signal;HPM_P1;HPM_P2
2022/12/05 00:00:15;;;;;;;62.72;28.90;;;;;;;;;;1037064;28;20485;-74
2022/12/05 00:00:46;;;;;;;69.00;29.23;;;;;;;;;;1037270;28;20573;-74
2022/12/05 00:01:19;;;;;;;68.60;29.08;;;;;;;;;;1036990;28;20069;-74
2022/12/05 00:01:50;;;;;;;74.95;31.20;;;;;;;;;;1037581;28;20060;-74
2022/12/05 00:02:21;;;;;;;69.60;28.58;;;;;;;;;;1037760;28;20021;-74
2022/12/05 00:02:51;;;;;;;61.75;27.00;;;;;;;;;;1037745;28;20025;-74
2022/12/05 00:03:22;;;;;;;65.25;26.77;;;;;;;;;;1037578;28;20072;-74
2022/12/05 00:03:53;;;;;;;73.90;29.48;;;;;;;;;;1037679;28;20053;-74
2022/12/05 00:04:24;;;;;;;66.30;27.65;;;;;;;;;;1037589;28;20026;-74
2022/12/05 00:04:55;;;;;;;72.28;26.38;;;;;;;;;;1035976;28;20101;-74
2022/12/05 00:05:25;;;;;;;59.75;26.48;;;;;;;;;;1037139;28;20026;-74
2022/12/05 00:05:56;;;;;;;56.97;25.33;;;;;;;;;;1037348;28;20021;-74
2022/12/05 00:06:27;;;;;;;70.78;27.58;;;;;;;;;;1037411;28;20026;-74
2022/12/05 00:06:58;;;;;;;66.38;30.20;;;;;;;;;;1037534;28;20076;-74
2022/12/05 00:07:28;;;;;;;78.03;29.95;;;;;;;;;;1037550;28;20490;-74
2022/12/05 00:07:59;;;;;;;62.45;26.15;;;;;;;;;;1037783;28;20541;-74
2022/12/05 00:08:29;;;;;;;64.80;24.92;;;;;;;;;;1038689;28;20477;-74
2022/12/05 00:09:00;;;;;;;54.72;20.83;;;;;;;;;;1037569;28;20469;-74
2022/12/05 00:09:30;;;;;;;75.82;24.95;;;;;;;;;;1037755;28;20017;-74
2022/12/05 00:10:01;;;;;;;67.18;29.73;;;;;;;;;;1037120;28;20025;-75
2022/12/05 00:10:31;;;;;;;54.53;23.65;;;;;;;;;;1037121;28;20025;-74
2022/12/05 00:11:02;;;;;;;60.85;24.15;;;;;;;;;;1037372;28;20021;-74
2022/12/05 00:11:34;;;;;;;64.93;26.15;;;;;;;;;;1037269;28;20025;-74
2022/12/05 00:12:04;;;;;;;69.28;28.15;;;;;;;;;;1037470;28;20029;-74
2022/12/05 00:12:35;;;;;;;76.25;28.35;;;;;;;;;;1037693;28;20030;-74
2022/12/05 00:13:06;;;;;;;71.40;26.55;;;;;;;;;;1037591;28;20029;-74
2022/12/05 00:13:38;;;;;;;69.97;26.85;;;;;;;;;;1037703;28;20026;-74
2022/12/05 00:14:10;;;;;;;64.05;27.90;;;;;;;;;;1037688;28;20021;-74
2022/12/05 00:14:40;;;;;;;56.08;24.40;;;;;;;;;;1037629;28;20053;-74
2022/12/05 00:15:11;;;;;;;73.53;27.33;;;;;;;;;;1037363;28;20469;-74
2022/12/05 00:15:42;;;;;;;69.07;25.33;;;;;;;;;;1037516;28;20605;-74
2022/12/05 00:16:14;;;;;;;62.40;24.95;;;;;;;;;;1037696;28;20030;-74
2022/12/05 00:16:44;;;;;;;72.93;28.45;;;;;;;;;;1037729;28;20029;-74
2022/12/05 00:17:15;;;;;;;71.13;24.92;;;;;;;;;;1037490;28;20080;-74
2022/12/05 00:17:45;;;;;;;81.50;25.73;;;;;;;;;;1037550;28;20585;-74
2022/12/05 00:18:16;;;;;;;74.07;24.48;;;;;;;;;;1037204;28;20481;-74
2022/12/05 00:18:47;;;;;;;68.00;25.85;;;;;;;;;;1037250;28;20490;-74
2022/12/05 00:19:17;;;;;;;62.17;26.08;;;;;;;;;;1037301;28;20092;-74
2022/12/05 00:19:48;;;;;;;70.55;27.30;;;;;;;;;;1037322;28;20109;-74
2022/12/05 00:20:19;;;;;;;64.75;27.40;;;;;;;;;;1037436;28;20028;-74
2022/12/05 00:20:50;;;;;;;71.30;27.40;;;;;;;;;;1037800;28;20080;-74
2022/12/05 00:21:22;;;;;;;63.30;26.30;;;;;;;;;;1037594;28;20022;-74
2022/12/05 00:21:53;;;;;;;66.78;23.48;;;;;;;;;;1037547;28;20033;-74
2022/12/05 00:22:23;;;;;;;66.95;24.77;;;;;;;;;;1037708;28;20029;-74
2022/12/05 00:22:54;;;;;;;47.08;22.63;;;;;;;;;;1037489;28;20033;-74
2022/12/05 00:23:24;;;;;;;65.97;25.45;;;;;;;;;;1037469;28;20020;-74
2022/12/05 00:23:56;;;;;;;62.88;26.45;;;;;;;;;;1037141;28;20022;-74
2022/12/05 00:24:26;;;;;;;77.93;24.98;;;;;;;;;;1036658;28;20025;-74
2022/12/05 00:24:57;;;;;;;66.05;27.42;;;;;;;;;;1037270;28;20025;-74
2022/12/05 00:25:27;;;;;;;61.17;26.15;;;;;;;;;;1037207;28;20041;-74
2022/12/05 00:26:02;;;;;;;53.28;25.92;;;;;;;;;;1037104;28;20033;-75
2022/12/05 00:26:33;;;;;;;69.63;25.33;;;;;;;;;;1037564;28;20121;-74
2022/12/05 00:27:03;;;;;;;68.05;23.80;;;;;;;;;;1037257;28;20029;-74
2022/12/05 00:27:34;;;;;;;63.33;25.77;;;;;;;;;;1037185;28;20021;-74
2022/12/05 00:28:05;;;;;;;59.75;27.60;;;;;;;;;;1036848;28;20112;-74
2022/12/05 00:28:36;;;;;;;61.65;23.98;;;;;;;;;;1037368;28;20061;-74
2022/12/05 00:29:06;;;;;;;57.83;23.67;;;;;;;;;;1037610;28;20021;-74
2022/12/05 00:29:37;;;;;;;57.30;26.55;;;;;;;;;;1037436;28;20022;-74
2022/12/05 00:30:07;;;;;;;63.55;26.35;;;;;;;;;;1037552;28;21804;-74
2022/12/05 00:30:39;;;;;;;62.13;24.33;;;;;;;;;;1037214;28;20057;-76
2022/12/05 00:31:13;;;;;;;57.80;22.50;;;;;;;;;;1032203;28;20414;-76
2022/12/05 00:31:44;;;;;;;63.88;26.77;;;;;;;;;;1033083;28;20049;-76
2022/12/05 00:32:14;;;;;;;73.47;28.15;;;;;;;;;;1034004;28;20572;-76
2022/12/05 00:32:45;;;;;;;65.10;26.08;;;;;;;;;;1037209;28;20036;-76
2022/12/05 00:33:16;;;;;;;71.38;27.63;;;;;;;;;;1037103;28;20029;-76
2022/12/05 00:33:46;;;;;;;61.20;27.90;;;;;;;;;;1037480;28;20278;-76
2022/12/05 00:34:17;;;;;;;71.80;26.13;;;;;;;;;;1037333;28;20910;-76
2022/12/05 00:34:47;;;;;;;75.93;28.08;;;;;;;;;;1037588;28;20056;-76
2022/12/05 00:35:18;;;;;;;69.40;27.35;;;;;;;;;;1036482;28;20027;-76
2022/12/05 00:35:48;;;;;;;63.33;26.92;;;;;;;;;;1033067;28;20056;-76
2022/12/05 00:36:23;;;;;;;62.30;25.95;;;;;;;;;;1032827;28;20026;-76
2022/12/05 00:36:54;;;;;;;76.68;27.35;;;;;;;;;;1033091;28;20469;-76
2022/12/05 00:37:24;;;;;;;73.53;27.00;;;;;;;;;;1033704;28;20021;-76
2022/12/05 00:37:55;;;;;;;88.05;28.05;;;;;;;;;;1037265;28;20076;-76
2022/12/05 00:38:25;;;;;;;72.85;24.77;;;;;;;;;;1037475;28;20517;-76
2022/12/05 00:38:58;;;;;;;72.47;29.23;;;;;;;;;;1037075;28;20572;-76
2022/12/05 00:39:28;;;;;;;68.70;29.08;;;;;;;;;;1037341;28;20485;-76
2022/12/05 00:39:59;;;;;;;59.83;25.27;;;;;;;;;;1037005;28;20026;-76
2022/12/05 00:40:29;;;;;;;63.28;26.90;;;;;;;;;;1037568;28;20040;-76
2022/12/05 00:41:03;;;;;;;73.93;29.83;;;;;;;;;;1037342;28;20022;-76
2022/12/05 00:41:34;;;;;;;70.05;28.75;;;;;;;;;;1037040;28;20026;-76
2022/12/05 00:42:05;;;;;;;64.53;25.58;;;;;;;;;;1037199;28;20083;-76
2022/12/05 00:42:35;;;;;;;58.17;26.35;;;;;;;;;;1037233;28;20473;-76
2022/12/05 00:43:06;;;;;;;73.05;27.88;;;;;;;;;;1037119;28;20021;-76
2022/12/05 00:43:37;;;;;;;73.47;27.55;;;;;;;;;;1037484;28;20017;-76
2022/12/05 00:44:07;;;;;;;57.13;25.98;;;;;;;;;;1037507;28;20435;-76
2022/12/05 00:44:38;;;;;;;62.40;25.77;;;;;;;;;;1037557;28;20022;-76
2022/12/05 00:45:09;;;;;;;82.57;28.55;;;;;;;;;;1037502;28;20373;-76
2022/12/05 00:45:39;;;;;;;76.25;29.20;;;;;;;;;;1037319;28;20109;-76
2022/12/05 00:46:11;;;;;;;67.50;28.50;;;;;;;;;;1037366;28;20437;-76
2022/12/05 00:46:42;;;;;;;63.35;26.65;;;;;;;;;;1037672;28;20117;-76
2022/12/05 00:47:12;;;;;;;73.32;28.17;;;;;;;;;;1037477;28;20021;-76
2022/12/05 00:47:43;;;;;;;83.60;31.02;;;;;;;;;;1037546;28;20032;-76
2022/12/05 00:48:13;;;;;;;67.32;29.75;;;;;;;;;;1037284;28;20518;-76
2022/12/05 00:48:44;;;;;;;63.75;29.15;;;;;;;;;;1037184;28;20025;-74
2022/12/05 00:49:15;;;;;;;70.53;28.73;;;;;;;;;;1037227;28;20026;-74
2022/12/05 00:49:46;;;;;;;64.22;26.38;;;;;;;;;;1036070;28;20429;-73
2022/12/05 00:50:16;;;;;;;48.10;24.90;;;;;;;;;;1037725;28;20074;-73
2022/12/05 00:50:47;;;;;;;66.28;28.35;;;;;;;;;;1037569;28;20481;-73
2022/12/05 00:51:19;;;;;;;62.92;27.00;;;;;;;;;;1037486;28;20026;-73
2022/12/05 00:51:49;;;;;;;76.18;25.65;;;;;;;;;;1037412;28;20040;-73
2022/12/05 00:52:20;;;;;;;59.67;27.20;;;;;;;;;;1035906;28;20385;-73
2022/12/05 00:52:50;;;;;;;79.00;28.70;;;;;;;;;;1032891;28;20025;-73
2022/12/05 00:53:21;;;;;;;79.97;29.67;;;;;;;;;;1033069;28;20022;-73
2022/12/05 00:53:51;;;;;;;64.55;24.30;;;;;;;;;;1033502;28;20027;-73
2022/12/05 00:54:22;;;;;;;81.20;29.95;;;;;;;;;;1037959;28;20060;-73
2022/12/05 00:54:53;;;;;;;69.65;28.05;;;;;;;;;;1038182;28;20048;-73
2022/12/05 00:55:23;;;;;;;59.75;26.52;;;;;;;;;;1038079;28;20541;-73
2022/12/05 00:55:54;;;;;;;80.15;29.65;;;;;;;;;;1037223;28;20528;-73
2022/12/05 00:56:25;;;;;;;75.40;26.38;;;;;;;;;;1037618;28;20029;-73
2022/12/05 00:56:55;;;;;;;72.05;24.55;;;;;;;;;;1037825;28;20021;-73
2022/12/05 00:57:26;;;;;;;73.03;31.58;;;;;;;;;;1037778;28;20024;-73
2022/12/05 00:57:56;;;;;;;76.18;29.55;;;;;;;;;;1038119;28;20021;-73
2022/12/05 00:58:27;;;;;;;62.67;27.25;;;;;;;;;;1038102;28;20021;-73
2022/12/05 00:58:59;;;;;;;59.13;24.98;;;;;;;;;;1037903;28;20041;-75
2022/12/05 00:59:29;;;;;;;71.15;26.65;;;;;;;;;;1036828;28;20084;-75
2022/12/05 01:00:00;;;;;;;68.60;27.23;;;;;;;;;;1037696;28;20056;-75
2022/12/05 01:00:30;;;;;;;67.88;24.27;;;;;;;;;;1038065;28;20036;-75
2022/12/05 01:01:06;;;;;;;66.35;28.52;;;;;;;;;;1037449;28;20018;-75
2022/12/05 01:01:38;;;;;;;62.13;24.67;;;;;;;;;;1037848;28;20565;-75
2022/12/05 01:02:09;;;;;;;63.42;25.23;;;;;;;;;;1037968;28;20028;-76
2022/12/05 01:02:39;;;;;;;66.63;27.52;;;;;;;;;;1037642;28;20583;-76
2022/12/05 01:03:10;;;;;;;69.53;26.40;;;;;;;;;;1036777;28;20032;-76
2022/12/05 01:03:41;;;;;;;71.72;26.77;;;;;;;;;;1037669;28;20025;-76
2022/12/05 01:04:13;;;;;;;73.40;27.83;;;;;;;;;;1037855;28;20108;-76
2022/12/05 01:04:44;;;;;;;77.68;31.38;;;;;;;;;;1037949;28;20052;-76
2022/12/05 01:05:15;;;;;;;72.28;28.75;;;;;;;;;;1038759;28;20036;-76
2022/12/05 01:05:45;;;;;;;75.07;27.92;;;;;;;;;;1038189;28;20120;-76
2022/12/05 01:06:16;;;;;;;68.43;28.88;;;;;;;;;;1038570;28;20358;-76
2022/12/05 01:06:47;;;;;;;79.07;28.65;;;;;;;;;;1038223;28;20152;-76
2022/12/05 01:07:18;;;;;;;74.00;27.00;;;;;;;;;;1037962;28;20384;-76
2022/12/05 01:07:48;;;;;;;66.15;27.48;;;;;;;;;;1038305;28;20021;-76
2022/12/05 01:08:19;;;;;;;70.20;24.50;;;;;;;;;;1037721;28;20509;-76
2022/12/05 01:08:50;;;;;;;65.28;28.67;;;;;;;;;;1037958;28;20495;-76
2022/12/05 01:09:21;;;;;;;70.30;28.38;;;;;;;;;;1037734;28;20026;-76
2022/12/05 01:09:52;;;;;;;75.20;28.00;;;;;;;;;;1037941;28;20057;-76
2022/12/05 01:10:22;;;;;;;72.63;27.17;;;;;;;;;;1037949;28;20030;-76
2022/12/05 01:10:54;;;;;;;74.95;29.20;;;;;;;;;;1036999;28;20104;-76
2022/12/05 01:11:25;;;;;;;78.00;24.27;;;;;;;;;;1037605;28;20026;-76
2022/12/05 01:11:56;;;;;;;73.72;24.60;;;;;;;;;;1036535;28;20209;-76
2022/12/05 01:12:27;;;;;;;73.43;25.48;;;;;;;;;;1037542;28;20061;-76
2022/12/05 01:12:58;;;;;;;67.90;28.98;;;;;;;;;;1037940;28;20048;-76
2022/12/05 01:13:29;;;;;;;72.13;26.23;;;;;;;;;;1038870;28;20029;-76
2022/12/05 01:13:59;;;;;;;78.78;27.95;;;;;;;;;;1036812;28;20180;-76
2022/12/05 01:14:30;;;;;;;68.35;28.83;;;;;;;;;;1038114;28;20419;-76
2022/12/05 01:15:01;;;;;;;72.72;26.55;;;;;;;;;;1037641;28;20021;-76
2022/12/05 01:15:34;;;;;;;61.60;26.77;;;;;;;;;;1036894;28;20084;-76
2022/12/05 01:16:05;;;;;;;68.53;25.95;;;;;;;;;;1037866;28;20037;-76
2022/12/05 01:16:37;;;;;;;81.55;26.00;;;;;;;;;;1038350;28;20595;-76
2022/12/05 01:17:08;;;;;;;76.82;27.83;;;;;;;;;;1041064;28;20025;-76
2022/12/05 01:17:39;;;;;;;78.57;30.60;;;;;;;;;;1038537;28;20099;-76
2022/12/05 01:18:09;;;;;;;65.53;25.23;;;;;;;;;;1035808;28;20489;-76
2022/12/05 01:18:40;;;;;;;74.80;28.98;;;;;;;;;;1037264;28;20022;-76
2022/12/05 01:19:15;;;;;;;67.53;25.95;;;;;;;;;;1037696;28;20555;-76
2022/12/05 01:19:46;;;;;;;57.67;24.10;;;;;;;;;;1037744;28;20030;-76
2022/12/05 01:20:16;;;;;;;80.63;29.98;;;;;;;;;;1037691;28;20377;-76
2022/12/05 01:20:47;;;;;;;76.55;29.65;;;;;;;;;;1037530;28;20025;-76
2022/12/05 01:21:20;;;;;;;64.22;27.40;;;;;;;;;;1037853;28;20076;-76
2022/12/05 01:21:51;;;;;;;74.88;27.83;;;;;;;;;;1037191;28;20113;-76
2022/12/05 01:22:21;;;;;;;59.28;26.23;;;;;;;;;;1037241;28;20053;-76
2022/12/05 01:22:52;;;;;;;81.10;29.83;;;;;;;;;;1037341;28;20445;-76
2022/12/05 01:23:22;;;;;;;67.80;28.60;;;;;;;;;;1037871;28;20423;-76
2022/12/05 01:23:53;;;;;;;82.00;30.98;;;;;;;;;;1037374;28;20493;-75
2022/12/05 01:24:24;;;;;;;82.60;29.42;;;;;;;;;;1037585;28;20025;-75
2022/12/05 01:24:55;;;;;;;66.65;30.77;;;;;;;;;;1034886;28;20130;-75
2022/12/05 01:25:25;;;;;;;76.70;30.23;;;;;;;;;;1035693;28;20146;-77
2022/12/05 01:25:56;;;;;;;82.65;30.65;;;;;;;;;;1037501;28;20455;-77
2022/12/05 01:26:27;;;;;;;91.97;31.23;;;;;;;;;;1033567;28;20485;-77
2022/12/05 01:26:57;;;;;;;82.32;32.45;;;;;;;;;;1037251;28;20438;-77
2022/12/05 01:27:28;;;;;;;88.63;31.98;;;;;;;;;;1036804;28;20057;-77
2022/12/05 01:27:58;;;;;;;80.40;30.50;;;;;;;;;;1033893;28;20046;-76
2022/12/05 01:28:29;;;;;;;82.53;27.88;;;;;;;;;;1038006;28;20120;-76
2022/12/05 01:29:00;;;;;;;69.60;30.45;;;;;;;;;;1037274;28;20021;-76
2022/12/05 01:29:30;;;;;;;74.85;29.73;;;;;;;;;;1037578;28;20045;-76
2022/12/05 01:30:01;;;;;;;70.05;25.48;;;;;;;;;;1037778;28;20037;-76
2022/12/05 01:30:32;;;;;;;74.65;27.48;;;;;;;;;;1037960;28;20156;-76
2022/12/05 01:31:06;;;;;;;68.78;28.30;;;;;;;;;;1037872;28;20017;-76
2022/12/05 01:31:37;;;;;;;74.05;30.67;;;;;;;;;;1040975;28;20025;-77
2022/12/05 01:32:07;;;;;;;75.82;27.48;;;;;;;;;;1038175;28;20021;-77
2022/12/05 01:32:38;;;;;;;65.45;26.30;;;;;;;;;;1037528;28;20092;-77
2022/12/05 01:33:09;;;;;;;80.07;25.60;;;;;;;;;;1037563;28;20056;-76
2022/12/05 01:33:39;;;;;;;78.25;31.17;;;;;;;;;;1037429;28;20116;-76
2022/12/05 01:34:11;;;;;;;71.13;28.13;;;;;;;;;;1037564;28;20021;-76
2022/12/05 01:34:42;;;;;;;60.35;25.50;;;;;;;;;;1037854;28;20141;-76
2022/12/05 01:35:12;;;;;;;65.93;27.30;;;;;;;;;;1036810;28;21041;-76
2022/12/05 01:35:43;;;;;;;66.55;27.15;;;;;;;;;;1037327;28;20033;-77
2022/12/05 01:36:14;;;;;;;78.20;26.98;;;;;;;;;;1038041;28;20151;-77
2022/12/05 01:36:45;;;;;;;79.05;30.27;;;;;;;;;;1040744;28;20474;-77
2022/12/05 01:37:16;;;;;;;67.32;27.58;;;;;;;;;;1042142;28;20485;-75
2022/12/05 01:37:47;;;;;;;61.20;27.30;;;;;;;;;;1038794;28;20029;-77
2022/12/05 01:38:17;;;;;;;62.80;27.83;;;;;;;;;;1037372;28;20073;-76
2022/12/05 01:38:48;;;;;;;71.25;27.50;;;;;;;;;;1037374;28;20136;-76
2022/12/05 01:39:19;;;;;;;68.20;27.90;;;;;;;;;;1037737;28;20032;-76
2022/12/05 01:39:51;;;;;;;64.70;25.42;;;;;;;;;;1037950;28;20482;-75
2022/12/05 01:40:21;;;;;;;78.88;28.80;;;;;;;;;;1037017;28;20024;-75
2022/12/05 01:40:59;;;;;;;72.95;29.88;;;;;;;;;;1037477;28;20021;-75
2022/12/05 01:41:31;;;;;;;75.85;29.17;;;;;;;;;;1037998;28;20033;-76
2022/12/05 01:42:03;;;;;;;81.90;31.83;;;;;;;;;;1037704;28;20025;-75
2022/12/05 01:42:34;;;;;;;67.22;29.25;;;;;;;;;;1038104;28;20493;-75
2022/12/05 01:43:09;;;;;;;80.90;28.40;;;;;;;;;;1037155;28;20030;-75
2022/12/05 01:43:53;;;;;;;59.92;25.90;;;;;;;;;;1037893;28;20025;-76
2022/12/05 01:44:23;;;;;;;61.50;26.85;;;;;;;;;;1035705;28;20021;-75
2022/12/05 01:44:58;;;;;;;68.82;26.90;;;;;;;;;;1035551;28;20014;-75
2022/12/05 01:45:31;;;;;;;84.60;28.33;;;;;;;;;;1037760;28;20131;-75
2022/12/05 01:46:02;;;;;;;56.13;24.98;;;;;;;;;;1037495;28;20065;-75
2022/12/05 01:46:34;;;;;;;58.45;25.63;;;;;;;;;;1037955;28;20022;-75
2022/12/05 01:47:07;;;;;;;72.97;28.15;;;;;;;;;;1033849;28;20122;-75
2022/12/05 01:47:37;;;;;;;84.05;27.92;;;;;;;;;;1034210;28;20018;-75
2022/12/05 01:48:18;;;;;;;56.85;25.80;;;;;;;;;;1033842;28;20134;-75
2022/12/05 01:48:50;;;;;;;82.43;30.40;;;;;;;;;;1034841;28;20089;-75
2022/12/05 01:49:35;;;;;;;66.03;25.23;;;;;;;;;;1037803;28;20493;-75
2022/12/05 01:50:06;;;;;;;68.22;26.88;;;;;;;;;;1037667;28;20109;-75
2022/12/05 01:50:37;;;;;;;71.63;27.33;;;;;;;;;;1038021;28;20117;-75
2022/12/05 01:51:07;;;;;;;64.68;25.20;;;;;;;;;;1037449;28;20017;-75
2022/12/05 01:51:40;;;;;;;73.28;28.38;;;;;;;;;;1037870;28;20030;-75
2022/12/05 01:52:14;;;;;;;71.55;28.50;;;;;;;;;;1043490;28;20112;-75
2022/12/05 01:52:45;;;;;;;60.42;28.92;;;;;;;;;;1039258;28;20485;-74
2022/12/05 01:53:16;;;;;;;91.00;30.52;;;;;;;;;;1033872;28;20018;-74
2022/12/05 01:53:47;;;;;;;82.80;27.95;;;;;;;;;;1033648;28;20030;-74
2022/12/05 01:54:20;;;;;;;81.40;31.60;;;;;;;;;;1037047;28;20025;-74
2022/12/05 01:54:53;;;;;;;74.63;28.88;;;;;;;;;;1039141;28;20034;-74
2022/12/05 01:55:24;;;;;;;84.15;27.02;;;;;;;;;;1037867;28;20017;-74
2022/12/05 01:55:55;;;;;;;68.38;28.00;;;;;;;;;;1037826;28;20057;-74
2022/12/05 01:56:26;;;;;;;74.57;29.23;;;;;;;;;;1038002;28;20017;-74
2022/12/05 01:57:00;;;;;;;64.95;30.02;;;;;;;;;;1038220;28;20021;-74
2022/12/05 01:57:31;;;;;;;87.75;27.98;;;;;;;;;;1041529;28;20048;-74
2022/12/05 01:58:03;;;;;;;102.32;30.17;;;;;;;;;;1041805;28;20017;-74
2022/12/05 01:58:36;;;;;;;66.18;27.25;;;;;;;;;;1040452;28;20029;-74
2022/12/05 01:59:07;;;;;;;73.80;26.77;;;;;;;;;;1040798;28;20025;-74
2022/12/05 01:59:40;;;;;;;62.42;26.85;;;;;;;;;;1037687;28;20104;-74
2022/12/05 02:00:12;;;;;;;84.57;29.77;;;;;;;;;;1037782;28;20026;-74
2022/12/05 02:00:43;;;;;;;86.43;28.85;;;;;;;;;;1037187;28;20025;-74
2022/12/05 02:01:15;;;;;;;84.47;30.35;;;;;;;;;;1037129;28;20362;-74
2022/12/05 02:01:45;;;;;;;82.30;32.55;;;;;;;;;;1037596;28;20547;-74
2022/12/05 02:02:16;;;;;;;77.72;29.00;;;;;;;;;;1037239;28;20033;-74
2022/12/05 02:02:50;;;;;;;85.75;30.65;;;;;;;;;;1037365;28;20450;-74
2022/12/05 02:03:21;;;;;;;72.97;29.52;;;;;;;;;;1037931;28;20038;-74
2022/12/05 02:03:54;;;;;;;68.13;27.50;;;;;;;;;;1037287;28;20021;-74
2022/12/05 02:04:26;;;;;;;72.93;30.42;;;;;;;;;;1036679;28;20029;-74
2022/12/05 02:05:00;;;;;;;70.65;30.13;;;;;;;;;;1036770;28;20033;-74
2022/12/05 02:05:32;;;;;;;95.47;32.47;;;;;;;;;;1030855;28;20033;-74
2022/12/05 02:06:03;;;;;;;81.68;30.50;;;;;;;;;;1033570;28;20549;-74
2022/12/05 02:06:33;;;;;;;69.30;30.33;;;;;;;;;;1037480;28;20032;-74
2022/12/05 02:07:04;;;;;;;83.57;33.30;;;;;;;;;;1037837;28;20072;-74
2022/12/05 02:07:37;;;;;;;83.93;30.52;;;;;;;;;;1038540;28;20628;-74
2022/12/05 02:08:08;;;;;;;83.55;32.67;;;;;;;;;;1037869;28;20021;-74
2022/12/05 02:08:40;;;;;;;90.93;31.00;;;;;;;;;;1037288;28;20122;-74
2022/12/05 02:09:10;;;;;;;81.45;31.23;;;;;;;;;;1037223;28;20042;-74
2022/12/05 02:09:41;;;;;;;68.95;29.75;;;;;;;;;;1035817;28;20092;-74
2022/12/05 02:10:12;;;;;;;74.90;30.48;;;;;;;;;;1035219;28;20858;-74
2022/12/05 02:10:52;;;;;;;77.15;33.40;;;;;;;;;;1037001;28;20056;-74
2022/12/05 02:11:25;;;;;;;86.38;32.30;;;;;;;;;;1036806;28;20508;-74
2022/12/05 02:11:57;;;;;;;91.68;32.85;;;;;;;;;;1037638;28;20848;-74
2022/12/05 02:12:27;;;;;;;94.68;34.50;;;;;;;;;;1037809;28;20385;-74
2022/12/05 02:13:02;;;;;;;88.25;35.17;;;;;;;;;;1037347;28;20025;-74
2022/12/05 02:13:48;;;;;;;85.40;31.02;;;;;;;;;;1037659;28;20044;-74
2022/12/05 02:14:18;;;;;;;78.72;29.13;;;;;;;;;;1037953;28;20030;-74
2022/12/05 02:15:04;;;;;;;85.45;29.05;;;;;;;;;;1037514;28;20898;-74
2022/12/05 02:15:47;;;;;;;70.78;27.50;;;;;;;;;;1038071;28;20029;-74
2022/12/05 02:16:17;;;;;;;74.28;29.80;;;;;;;;;;1036643;28;20486;-74
2022/12/05 02:16:56;;;;;;;87.63;31.60;;;;;;;;;;1036784;28;20025;-74
2022/12/05 02:17:29;;;;;;;74.72;29.85;;;;;;;;;;1036380;28;20113;-74
2022/12/05 02:18:03;;;;;;;83.80;29.67;;;;;;;;;;1035198;28;20022;-74
2022/12/05 02:18:40;;;;;;;77.13;31.63;;;;;;;;;;1038492;28;20393;-74
2022/12/05 02:19:25;;;;;;;99.43;36.00;;;;;;;;;;1041730;28;20056;-74
2022/12/05 02:20:09;;;;;;;73.30;32.40;;;;;;;;;;1042993;28;20043;-74
2022/12/05 02:20:39;;;;;;;72.72;27.55;;;;;;;;;;1042675;28;20024;-74
2022/12/05 02:21:10;;;;;;;76.35;30.10;;;;;;;;;;1036763;28;20025;-74
2022/12/05 02:21:51;;;;;;;88.07;30.92;;;;;;;;;;1037377;28;20428;-74
2022/12/05 02:22:37;;;;;;;72.85;29.42;;;;;;;;;;1036369;28;20045;-74
2022/12/05 02:23:19;;;;;;;71.47;28.25;;;;;;;;;;1036942;28;20034;-73
2022/12/05 02:23:56;;;;;;;70.90;28.58;;;;;;;;;;1037162;28;20112;-74
2022/12/05 02:24:36;;;;;;;70.80;29.88;;;;;;;;;;1036721;28;20033;-76
2022/12/05 02:25:25;;;;;;;76.95;31.83;;;;;;;;;;1032860;28;20022;-75
2022/12/05 02:26:19;;;;;;;74.07;29.00;;;;;;;;;;1036800;28;20400;-75
2022/12/05 02:27:05;;;;;;;71.50;27.65;;;;;;;;;;1036975;28;20148;-75
2022/12/05 02:27:54;;;;;;;75.88;25.98;;;;;;;;;;1037360;28;20026;-75
2022/12/05 02:28:28;;;;;;;64.15;26.73;;;;;;;;;;1036480;28;20041;-75
2022/12/05 02:29:16;;;;;;;81.13;29.05;;;;;;;;;;1038366;28;20058;-75
2022/12/05 02:29:49;;;;;;;91.78;29.33;;;;;;;;;;1036875;28;20508;-75
2022/12/05 02:30:21;;;;;;;81.40;30.00;;;;;;;;;;1036986;28;20438;-75
2022/12/05 02:31:17;;;;;;;84.85;33.15;;;;;;;;;;1037260;28;20029;-76
2022/12/05 02:31:48;;;;;;;77.07;29.92;;;;;;;;;;1033885;28;20459;-76
2022/12/05 02:32:21;;;;;;;77.30;31.67;;;;;;;;;;1036811;28;20014;-75
2022/12/05 02:32:58;;;;;;;92.72;34.28;;;;;;;;;;1033466;28;20037;-75
2022/12/05 02:33:28;;;;;;;85.78;26.98;;;;;;;;;;1034267;28;20036;-75
2022/12/05 02:34:04;;;;;;;80.65;28.55;;;;;;;;;;1034940;28;20124;-75
2022/12/05 02:34:35;;;;;;;80.22;32.38;;;;;;;;;;1031431;28;20064;-75
2022/12/05 02:35:08;;;;;;;85.75;30.02;;;;;;;;;;1033833;28;20048;-75
2022/12/05 02:35:39;;;;;;;81.07;28.90;;;;;;;;;;1035553;28;20014;-75
2022/12/05 02:36:16;;;;;;;88.47;30.77;;;;;;;;;;1028365;28;20033;-76
2022/12/05 02:36:51;;;;;;;87.78;31.45;;;;;;;;;;1030962;28;20034;-74
2022/12/05 02:37:26;;;;;;;84.63;33.38;;;;;;;;;;1032280;28;20086;-75
2022/12/05 02:38:15;;;;;;;96.93;32.20;;;;;;;;;;1034076;28;20032;-75
2022/12/05 02:39:24;;;;;;;90.32;34.90;;;;;;;;;;1036244;28;20026;-75
2022/12/05 02:40:12;;;;;;;92.60;31.95;;;;;;;;;;1023040;28;20105;-75
2022/12/05 02:40:48;;;;;;;81.93;29.30;;;;;;;;;;1028325;28;20029;-75
2022/12/05 02:41:26;;;;;;;94.40;35.05;;;;;;;;;;1027798;28;20116;-75
2022/12/05 02:42:11;;;;;;;84.60;31.95;;;;;;;;;;1028361;28;20129;-76
2022/12/05 02:42:49;;;;;;;86.60;30.52;;;;;;;;;;1029048;28;20019;-76
2022/12/05 02:43:22;;;;;;;83.68;30.98;;;;;;;;;;1024642;28;20039;-76
2022/12/05 02:43:56;;;;;;;100.30;33.47;;;;;;;;;;1024523;28;20469;-76
2022/12/05 02:44:29;;;;;;;91.40;32.50;;;;;;;;;;1024651;28;20019;-76
2022/12/05 02:45:06;;;;;;;109.55;36.10;;;;;;;;;;1025253;28;20034;-75
2022/12/05 02:45:37;;;;;;;98.70;32.17;;;;;;;;;;1024803;28;20037;-76
2022/12/05 02:46:10;;;;;;;81.53;33.85;;;;;;;;;;1036104;28;20025;-76
2022/12/05 02:46:41;;;;;;;96.00;32.42;;;;;;;;;;1036254;28;20092;-75
2022/12/05 02:47:14;;;;;;;87.07;33.25;;;;;;;;;;1037760;28;20489;-75
2022/12/05 02:47:46;;;;;;;91.43;34.17;;;;;;;;;;1036825;28;20056;-75
2022/12/05 02:48:17;;;;;;;83.50;31.58;;;;;;;;;;1036090;28;20155;-75
2022/12/05 02:48:50;;;;;;;102.43;33.20;;;;;;;;;;1035446;28;20036;-75
2022/12/05 02:49:26;;;;;;;114.70;36.70;;;;;;;;;;1037268;28;20040;-75
2022/12/05 02:49:56;;;;;;;84.38;31.67;;;;;;;;;;1039211;28;20499;-76
2022/12/05 02:50:30;;;;;;;87.43;35.17;;;;;;;;;;1039024;28;20019;-76
2022/12/05 02:51:02;;;;;;;92.72;33.20;;;;;;;;;;1035462;28;20688;-76
2022/12/05 02:51:35;;;;;;;84.28;31.95;;;;;;;;;;1037575;28;20492;-76
2022/12/05 02:52:07;;;;;;;95.10;32.83;;;;;;;;;;1036617;28;20087;-75
2022/12/05 02:52:38;;;;;;;93.22;35.35;;;;;;;;;;1036559;28;20041;-75
2022/12/05 02:53:10;;;;;;;88.28;32.13;;;;;;;;;;1034466;28;20116;-75
2022/12/05 02:53:42;;;;;;;82.03;32.35;;;;;;;;;;1036221;28;20029;-75
2022/12/05 02:54:15;;;;;;;81.82;30.95;;;;;;;;;;1036867;28;20069;-76
2022/12/05 02:54:48;;;;;;;95.13;36.80;;;;;;;;;;1035420;28;20057;-76
2022/12/05 02:55:19;;;;;;;93.07;33.90;;;;;;;;;;1036816;28;20030;-75
2022/12/05 02:55:50;;;;;;;98.20;32.17;;;;;;;;;;1032150;28;20037;-75
2022/12/05 02:56:22;;;;;;;84.25;30.23;;;;;;;;;;1030258;28;20050;-75
2022/12/05 02:56:53;;;;;;;110.88;33.97;;;;;;;;;;1030667;28;20041;-76
2022/12/05 02:57:24;;;;;;;115.13;35.50;;;;;;;;;;1033074;28;20034;-76
2022/12/05 02:57:57;;;;;;;92.68;35.33;;;;;;;;;;1035341;28;20018;-76
2022/12/05 02:58:36;;;;;;;73.47;31.60;;;;;;;;;;1036059;28;20040;-76
2022/12/05 02:59:06;;;;;;;85.75;32.15;;;;;;;;;;1036473;28;20018;-76
2022/12/05 02:59:37;;;;;;;86.70;31.08;;;;;;;;;;1038013;28;20473;-76
2022/12/05 03:00:08;;;;;;;76.82;33.22;;;;;;;;;;1035246;28;20117;-76
2022/12/05 03:00:41;;;;;;;92.03;32.88;;;;;;;;;;1029850;28;20080;-76
2022/12/05 03:01:12;;;;;;;82.40;29.17;;;;;;;;;;1031642;28;20141;-76
2022/12/05 03:01:45;;;;;;;92.28;31.15;;;;;;;;;;1033175;28;20075;-76
2022/12/05 03:02:26;;;;;;;107.93;32.45;;;;;;;;;;1033538;28;20025;-76
2022/12/05 03:02:58;;;;;;;85.90;31.38;;;;;;;;;;1036524;28;20515;-76
2022/12/05 03:03:31;;;;;;;81.20;31.65;;;;;;;;;;1037326;28;20116;-76
2022/12/05 03:04:03;;;;;;;101.28;34.40;;;;;;;;;;1040420;28;20339;-76
2022/12/05 03:04:34;;;;;;;89.05;36.15;;;;;;;;;;1041978;28;20055;-76
2022/12/05 03:05:19;;;;;;;83.95;32.85;;;;;;;;;;1040770;28;20112;-76
2022/12/05 03:06:08;;;;;;;84.13;30.50;;;;;;;;;;1040633;28;20029;-76
2022/12/05 03:06:44;;;;;;;75.97;28.55;;;;;;;;;;1039499;28;20033;-76
2022/12/05 03:07:16;;;;;;;66.53;29.30;;;;;;;;;;1040890;28;20566;-76
2022/12/05 03:07:48;;;;;;;72.00;26.73;;;;;;;;;;1040526;28;20056;-76
2022/12/05 03:08:21;;;;;;;82.45;30.67;;;;;;;;;;1040914;28;20136;-76
2022/12/05 03:09:12;;;;;;;62.00;27.08;;;;;;;;;;1040948;28;20039;-76
2022/12/05 03:09:45;;;;;;;72.68;27.92;;;;;;;;;;1037851;28;20025;-77
2022/12/05 03:10:18;;;;;;;67.72;24.88;;;;;;;;;;1037703;28;20075;-76